createdAt,value
2023-01-15T00:01:15.579Z,23.50
2023-01-15T00:06:22.709Z,23.50
2023-01-15T00:11:29.920Z,23.50
2023-01-15T00:16:37.159Z,23.60
2023-01-15T00:21:44.316Z,23.60
2023-01-15T00:26:51.516Z,23.60
2023-01-15T00:31:58.756Z,23.60
2023-01-15T00:37:06.012Z,23.50
2023-01-15T00:42:13.952Z,23.40
2023-01-15T00:47:21.169Z,23.40
2023-01-15T00:52:28.388Z,23.40
2023-01-15T00:57:35.618Z,23.30
2023-01-15T01:02:42.834Z,23.30
2023-01-15T01:07:49.980Z,23.20
2023-01-15T01:12:57.123Z,23.10
2023-01-15T01:18:04.342Z,23.10
2023-01-15T01:23:11.554Z,23.00
2023-01-15T01:28:18.805Z,22.90
2023-01-15T01:33:26.042Z,22.90
2023-01-15T01:38:33.228Z,22.80
2023-01-15T01:43:40.435Z,22.70
2023-01-15T01:48:47.688Z,22.60
2023-01-15T01:53:54.914Z,22.60
2023-01-15T01:59:02.136Z,22.60
2023-01-15T02:04:09.327Z,22.40
2023-01-15T02:09:16.541Z,22.40
2023-01-15T02:14:23.746Z,22.40
2023-01-15T02:19:30.941Z,22.30
2023-01-15T02:24:38.154Z,22.30
2023-01-15T02:29:45.362Z,22.20
2023-01-15T02:34:52.571Z,22.10
2023-01-15T02:39:59.784Z,22.10
2023-01-15T02:45:07.033Z,22.10
2023-01-15T02:50:14.178Z,22.00
2023-01-15T02:55:21.344Z,22.00
2023-01-15T03:00:28.497Z,21.90
2023-01-15T03:05:35.692Z,21.90
2023-01-15T03:10:42.886Z,21.90
2023-01-15T03:15:50.088Z,21.80
2023-01-15T03:20:58.877Z,21.80
2023-01-15T03:26:04.543Z,21.80
2023-01-15T03:31:11.815Z,21.70
2023-01-15T03:36:19.001Z,21.60
2023-01-15T03:41:26.248Z,21.60
2023-01-15T03:46:33.479Z,21.50
2023-01-15T03:51:40.645Z,21.50
2023-01-15T03:56:47.858Z,21.40
2023-01-15T04:01:55.151Z,21.40
2023-01-15T04:07:02.286Z,21.30
2023-01-15T04:12:09.534Z,21.30
2023-01-15T04:17:16.904Z,21.20
2023-01-15T04:22:24.054Z,21.20
2023-01-15T04:27:31.261Z,21.20
2023-01-15T04:32:38.422Z,21.10
2023-01-15T04:37:45.574Z,21.10
2023-01-15T04:42:52.766Z,21.00
2023-01-15T04:47:59.994Z,21.00
2023-01-15T04:53:07.176Z,21.00
2023-01-15T04:58:14.375Z,21.00
2023-01-15T05:03:21.609Z,21.00
2023-01-15T05:08:28.811Z,20.90
2023-01-15T05:13:35.999Z,20.90
2023-01-15T05:18:43.240Z,20.90
2023-01-15T05:23:50.430Z,20.90
2023-01-15T05:28:57.561Z,20.90
2023-01-15T05:34:04.724Z,20.80
2023-01-15T05:39:11.929Z,20.80
2023-01-15T05:44:19.133Z,20.80
2023-01-15T05:49:26.354Z,20.70
2023-01-15T05:54:33.614Z,20.70
2023-01-15T05:59:40.885Z,20.70
2023-01-15T06:04:48.071Z,20.60
2023-01-15T06:09:55.254Z,20.60
2023-01-15T06:15:02.496Z,20.60
2023-01-15T06:20:09.675Z,20.50
2023-01-15T06:25:16.822Z,20.50
2023-01-15T06:30:23.978Z,20.50
2023-01-15T06:35:31.170Z,20.50
2023-01-15T06:40:38.376Z,20.40
2023-01-15T06:45:45.597Z,20.40
2023-01-15T06:50:52.781Z,20.30
2023-01-15T06:55:59.990Z,20.30
2023-01-15T07:01:07.313Z,20.30
2023-01-15T07:06:14.370Z,20.30
2023-01-15T07:11:21.637Z,20.30
2023-01-15T07:16:28.913Z,20.20
2023-01-15T07:21:36.003Z,20.30
2023-01-15T07:26:43.222Z,20.20
2023-01-15T07:31:50.453Z,20.20
2023-01-15T07:36:57.679Z,20.20
2023-01-15T07:42:04.894Z,20.20
2023-01-15T07:47:12.073Z,20.20
2023-01-15T07:52:19.277Z,20.10
2023-01-15T07:57:26.464Z,20.10
2023-01-15T08:02:33.658Z,20.10
2023-01-15T08:07:40.890Z,20.10
2023-01-15T08:12:48.073Z,20.00
2023-01-15T08:17:55.282Z,20.00
2023-01-15T08:23:02.421Z,20.00
2023-01-15T08:28:09.572Z,20.00
2023-01-15T08:33:16.757Z,20.00
2023-01-15T08:38:23.993Z,20.00
2023-01-15T08:43:31.192Z,20.00
2023-01-15T08:48:38.422Z,20.00
2023-01-15T08:53:45.607Z,19.90
2023-01-15T08:58:52.796Z,19.90
2023-01-15T09:04:00.016Z,19.90
2023-01-15T09:09:07.165Z,19.90
2023-01-15T09:14:59.253Z,19.90
2023-01-15T09:19:21.626Z,19.90
2023-01-15T09:24:28.871Z,19.90
2023-01-15T09:29:35.998Z,19.90
2023-01-15T09:34:43.235Z,19.90
2023-01-15T09:39:50.433Z,19.80
2023-01-15T09:44:57.706Z,19.80
2023-01-15T09:50:04.953Z,19.80
2023-01-15T09:55:12.137Z,19.80
2023-01-15T10:00:19.387Z,19.80
2023-01-15T10:05:26.608Z,19.80
2023-01-15T10:10:33.801Z,19.70
2023-01-15T10:15:41.054Z,19.60
2023-01-15T10:20:48.204Z,19.60
2023-01-15T10:25:55.368Z,19.60
2023-01-15T10:31:02.621Z,19.60
2023-01-15T10:36:09.795Z,19.60
2023-01-15T10:41:17.046Z,19.60
2023-01-15T10:46:24.343Z,19.70
2023-01-15T10:51:31.531Z,19.80
2023-01-15T10:56:38.748Z,19.90
2023-01-15T11:01:46.097Z,19.90
2023-01-15T11:06:53.175Z,20.00
2023-01-15T11:12:00.376Z,20.00
2023-01-15T11:17:07.586Z,20.00
2023-01-15T11:22:14.858Z,20.10
2023-01-15T11:27:22.048Z,20.10
2023-01-15T11:32:29.251Z,20.20
2023-01-15T11:37:36.423Z,20.20
2023-01-15T11:42:43.667Z,20.30
2023-01-15T11:47:51.097Z,20.30
2023-01-15T11:52:58.290Z,20.40
2023-01-15T11:58:05.480Z,20.50
2023-01-15T12:03:12.678Z,20.60
2023-01-15T12:08:19.904Z,20.70
2023-01-15T12:13:27.141Z,20.70
2023-01-15T12:18:34.299Z,20.80
2023-01-15T12:23:41.498Z,20.80
2023-01-15T12:28:48.706Z,20.90
2023-01-15T12:33:55.925Z,21.00
2023-01-15T12:39:03.162Z,21.10
2023-01-15T12:44:10.429Z,21.10
2023-01-15T12:49:17.652Z,21.20
2023-01-15T12:54:24.837Z,21.30
2023-01-15T12:59:32.076Z,21.30
2023-01-15T13:04:39.368Z,21.40
2023-01-15T13:09:46.570Z,21.40
2023-01-15T13:14:53.809Z,21.40
2023-01-15T13:20:01.066Z,21.50
2023-01-15T13:25:08.369Z,21.50
2023-01-15T13:30:15.972Z,21.50
2023-01-15T13:35:23.192Z,21.50
2023-01-15T13:40:30.440Z,21.60
2023-01-15T13:45:37.816Z,21.60
2023-01-15T13:50:44.922Z,21.70
2023-01-15T13:55:52.150Z,21.70
2023-01-15T14:00:59.444Z,21.80
2023-01-15T14:06:06.519Z,21.80
2023-01-15T14:11:13.703Z,21.90
2023-01-15T14:16:21.001Z,21.90
2023-01-15T14:21:28.214Z,21.90
2023-01-15T14:26:35.374Z,22.00
2023-01-15T14:31:42.864Z,22.00
2023-01-15T14:36:50.054Z,22.00
2023-01-15T14:41:57.208Z,22.00
2023-01-15T14:47:04.415Z,22.10
2023-01-15T14:52:11.691Z,22.10
2023-01-15T14:57:18.877Z,22.10
2023-01-15T15:02:26.380Z,22.20
2023-01-15T15:07:33.589Z,22.20
2023-01-15T15:12:41.303Z,22.20
2023-01-15T15:17:48.675Z,22.30
2023-01-15T15:22:55.841Z,22.30
2023-01-15T15:28:03.054Z,22.30
2023-01-15T15:33:10.240Z,22.40
2023-01-15T15:38:17.525Z,22.50
2023-01-15T15:43:24.861Z,22.50
2023-01-15T15:48:32.041Z,22.60
2023-01-15T15:53:39.248Z,22.50
2023-01-15T15:58:46.760Z,22.60
2023-01-15T16:03:54.278Z,22.60
2023-01-15T16:09:01.621Z,22.70
2023-01-15T16:14:08.799Z,22.80
2023-01-15T16:19:16.193Z,22.80
2023-01-15T16:24:24.320Z,22.90
2023-01-15T16:29:31.738Z,22.90
2023-01-15T16:34:39.342Z,22.90
2023-01-15T16:39:46.981Z,23.00
2023-01-15T16:44:54.329Z,23.10
2023-01-15T16:50:01.884Z,23.10
2023-01-15T16:55:09.401Z,23.30
2023-01-15T17:00:17.108Z,23.40
2023-01-15T17:05:24.948Z,23.40
2023-01-15T17:10:32.440Z,23.40
2023-01-15T17:15:40.099Z,23.40
2023-01-15T17:20:47.673Z,23.40
2023-01-15T17:25:55.297Z,23.40
2023-01-15T17:31:02.713Z,23.50
2023-01-15T17:36:11.076Z,23.60
2023-01-15T17:41:18.839Z,23.50
2023-01-15T17:46:26.786Z,23.60
2023-01-15T17:51:34.381Z,23.60
2023-01-15T17:56:42.096Z,23.60
2023-01-15T18:01:49.795Z,23.60
2023-01-15T18:06:57.058Z,23.60
2023-01-15T18:12:04.534Z,23.70
2023-01-15T18:17:12.165Z,23.70
2023-01-15T18:22:20.265Z,23.70
2023-01-15T18:27:27.683Z,23.80
2023-01-15T18:32:35.299Z,23.80
2023-01-15T18:37:42.733Z,23.90
2023-01-15T18:42:50.220Z,23.90
2023-01-15T18:47:57.591Z,23.90
2023-01-15T18:53:05.153Z,23.90
2023-01-15T18:58:12.876Z,24.00
2023-01-15T19:03:20.476Z,23.90
2023-01-15T19:08:28.088Z,23.90
2023-01-15T19:13:35.705Z,24.00
2023-01-15T19:18:43.414Z,24.00
2023-01-15T19:23:51.139Z,24.00
2023-01-15T19:28:58.506Z,24.00
2023-01-15T19:34:31.732Z,24.00
2023-01-15T19:39:12.857Z,24.00
2023-01-15T19:44:20.370Z,24.00
2023-01-15T19:49:27.976Z,24.00
2023-01-15T19:54:35.619Z,24.00
2023-01-15T19:59:43.305Z,24.10
2023-01-15T20:04:50.935Z,24.10
2023-01-15T20:09:58.550Z,24.00
2023-01-15T20:15:06.254Z,24.00
2023-01-15T20:20:13.666Z,24.10
2023-01-15T20:25:20.895Z,24.10
2023-01-15T20:30:28.385Z,24.10
2023-01-15T20:35:35.735Z,24.10
2023-01-15T20:40:43.200Z,24.10
2023-01-15T20:45:50.885Z,24.10
2023-01-15T20:50:58.447Z,24.10
2023-01-15T20:56:06.041Z,24.20
2023-01-15T21:01:13.503Z,24.20
2023-01-15T21:06:20.609Z,24.20
2023-01-15T21:11:27.866Z,24.20
2023-01-15T21:16:35.451Z,24.30
2023-01-15T21:21:42.997Z,24.30
2023-01-15T21:26:51.530Z,24.30
2023-01-15T21:31:58.891Z,24.40
2023-01-15T21:37:06.087Z,24.40
2023-01-15T21:42:14.038Z,24.40
2023-01-15T21:47:21.267Z,24.40
2023-01-15T21:52:28.446Z,24.40
2023-01-15T21:57:35.599Z,24.40
2023-01-15T22:02:42.797Z,24.50
2023-01-15T22:07:49.993Z,24.50
2023-01-15T22:12:57.201Z,24.50
2023-01-15T22:18:04.438Z,24.50
2023-01-15T22:23:11.710Z,24.50
2023-01-15T22:28:18.925Z,24.50
2023-01-15T22:33:26.097Z,24.50
2023-01-15T22:38:33.297Z,24.60
2023-01-15T22:43:40.607Z,24.60
2023-01-15T22:48:47.914Z,24.60
2023-01-15T22:53:55.232Z,24.70
2023-01-15T22:59:02.445Z,24.70
2023-01-15T23:04:09.684Z,24.70
2023-01-15T23:09:16.859Z,24.70
2023-01-15T23:14:24.061Z,24.70
2023-01-15T23:19:31.291Z,24.80
2023-01-15T23:24:38.472Z,24.70
2023-01-15T23:29:45.678Z,24.80
2023-01-15T23:34:52.898Z,24.80
2023-01-15T23:40:00.173Z,24.80
2023-01-15T23:45:07.329Z,24.80
2023-01-15T23:50:14.563Z,24.80
2023-01-15T23:55:21.724Z,24.80
